createdAt,value
2017-01-05T14:17:07.407Z,34.44
2017-01-05T14:17:37.436Z,35.02
2017-01-05T14:18:07.469Z,35.49
2017-01-05T14:18:37.492Z,36.18
2017-01-05T14:19:07.532Z,35.89
2017-01-05T14:19:37.565Z,36.09
2017-01-05T14:20:07.590Z,35.99
2017-01-05T14:20:37.636Z,36.01
2017-01-05T14:21:07.670Z,35.53
2017-01-05T14:21:37.693Z,35.91
2017-01-05T14:22:07.723Z,35.24
2017-01-05T14:22:37.761Z,35.53
2017-01-05T14:23:07.794Z,35.55
2017-01-05T14:23:37.831Z,35.16
2017-01-05T14:24:07.869Z,34.68
2017-01-05T14:24:37.898Z,34.78
2017-01-05T14:25:07.934Z,34.88
2017-01-05T14:25:37.972Z,34.7
2017-01-05T14:26:08.008Z,34.31
2017-01-05T14:29:06.735Z,33.66
2017-01-05T14:29:36.764Z,33.37
2017-01-05T14:30:06.803Z,33.18
2017-01-05T14:30:36.837Z,33.18
2017-01-05T14:31:06.868Z,33.1
2017-01-05T14:31:36.904Z,32.81
2017-01-05T15:45:03.536Z,23.25
2017-01-05T15:45:33.567Z,23.55
2017-01-05T15:46:03.604Z,23.34
2017-01-05T15:46:33.639Z,23.16
2017-01-05T17:05:50.654Z,28.63
2017-01-05T17:06:20.681Z,27.57
2017-01-05T17:06:50.716Z,26.22
2017-01-05T17:07:20.744Z,25.74
2017-01-05T17:07:50.779Z,25.26
2017-01-05T17:08:20.819Z,24.49
2017-01-05T17:08:50.849Z,24.39
2017-01-05T17:09:20.878Z,24.2
2017-01-05T17:09:50.916Z,24.29
2017-01-05T17:10:20.949Z,24.58
2017-01-05T17:10:50.988Z,24.39
